Time;durP1;ratioP1;P1;durP2;ratioP2;P2;SDS_P1;SDS_P2;PMS_P1;PMS_P2;Temp;Humidity;BMP_temperature;BMP_pressure;BME280_temperature;BME280_humidity;BME280_pressure;Samples;Min_cycle;Max_cycle;Signal;HPM_P1;HPM_P2
2023/09/21 00:00:17;;;;;;;2.87;2.30;;;19.10;99.90;;;;;;5013764;28;20470;-72
2023/09/21 00:02:54;;;;;;;2.83;2.17;;;19.00;99.90;;;;;;5012520;28;20535;-72
2023/09/21 00:05:22;;;;;;;2.20;2.00;;;19.00;99.90;;;;;;5012718;28;20998;-71
2023/09/21 00:07:48;;;;;;;3.40;3.20;;;18.90;99.90;;;;;;5012985;28;20494;-72
2023/09/21 00:10:14;;;;;;;3.77;3.57;;;18.80;99.90;;;;;;5013643;28;20466;-72
2023/09/21 00:12:40;;;;;;;4.80;4.40;;;18.80;99.90;;;;;;5011943;28;21079;-71
2023/09/21 00:15:08;;;;;;;2.70;2.50;;;18.70;99.90;;;;;;5012829;28;20521;-72
2023/09/21 00:17:34;;;;;;;3.57;3.30;;;18.60;99.90;;;;;;5007002;28;20483;-72
2023/09/21 00:20:02;;;;;;;4.13;3.83;;;18.60;99.90;;;;;;5011589;28;20530;-71
2023/09/21 00:22:28;;;;;;;4.00;3.47;;;18.70;99.90;;;;;;5012491;28;20266;-72
2023/09/21 00:24:54;;;;;;;3.17;2.87;;;18.60;99.90;;;;;;5012614;28;20559;-71
2023/09/21 00:27:22;;;;;;;2.43;2.30;;;18.60;99.90;;;;;;5012489;28;20216;-72
2023/09/21 00:29:49;;;;;;;2.30;2.10;;;18.70;99.90;;;;;;5011646;28;20220;-72
2023/09/21 00:32:14;;;;;;;2.60;2.27;;;18.60;99.90;;;;;;4992441;28;20524;-71
2023/09/21 00:34:41;;;;;;;2.03;1.83;;;18.60;99.90;;;;;;5027419;28;20475;-72
2023/09/21 00:37:07;;;;;;;2.53;2.33;;;18.40;99.90;;;;;;5026767;28;20485;-71
2023/09/21 00:39:34;;;;;;;2.57;2.07;;;18.50;99.90;;;;;;5024327;28;20306;-72
2023/09/21 00:42:00;;;;;;;2.37;1.90;;;18.50;99.90;;;;;;5027837;28;20451;-71
2023/09/21 00:44:26;;;;;;;2.27;1.73;;;18.50;99.90;;;;;;5005653;28;20494;-73
2023/09/21 00:46:52;;;;;;;2.77;1.87;;;18.50;99.90;;;;;;5012158;28;20319;-72
2023/09/21 00:49:18;;;;;;;2.13;1.80;;;18.40;99.90;;;;;;4995114;28;20463;-72
2023/09/21 00:51:45;;;;;;;2.00;1.80;;;18.50;99.90;;;;;;5006259;28;20653;-72
2023/09/21 00:54:12;;;;;;;2.30;2.10;;;18.30;99.90;;;;;;4995970;28;20462;-71
2023/09/21 00:56:39;;;;;;;1.70;1.60;;;18.40;99.90;;;;;;5010869;28;21762;-72
2023/09/21 00:59:06;;;;;;;1.60;1.50;;;18.30;99.90;;;;;;4995612;28;20556;-71
2023/09/21 01:01:33;;;;;;;2.60;1.90;;;18.30;99.90;;;;;;5011227;28;20978;-73
2023/09/21 01:04:06;;;;;;;1.97;1.50;;;18.30;99.90;;;;;;5011188;28;20578;-72
2023/09/21 01:06:32;;;;;;;1.90;1.70;;;18.30;99.90;;;;;;5009375;28;20463;-72
2023/09/21 01:08:58;;;;;;;2.60;1.90;;;18.20;99.90;;;;;;5011991;28;20563;-72
2023/09/21 01:11:24;;;;;;;2.70;1.93;;;18.30;99.90;;;;;;5010571;28;20469;-72
2023/09/21 01:13:51;;;;;;;1.67;1.57;;;18.30;99.90;;;;;;5010422;28;20224;-71
2023/09/21 01:16:18;;;;;;;2.10;1.80;;;18.20;99.90;;;;;;5010710;28;20544;-72
2023/09/21 01:18:44;;;;;;;2.20;1.90;;;18.00;99.90;;;;;;4990839;28;20486;-72
2023/09/21 01:21:10;;;;;;;2.27;1.77;;;18.00;99.90;;;;;;5027167;28;20578;-71
2023/09/21 01:23:41;;;;;;;1.97;1.80;;;18.10;99.90;;;;;;5008797;28;20694;-71
2023/09/21 01:26:07;;;;;;;2.87;1.87;;;18.10;99.90;;;;;;4993158;28;20536;-71
2023/09/21 01:28:32;;;;;;;2.00;1.70;;;18.10;99.90;;;;;;5012278;28;21025;-72
2023/09/21 01:30:58;;;;;;;2.57;2.07;;;18.10;99.90;;;;;;5010699;28;20220;-71
2023/09/21 01:33:24;;;;;;;6.10;2.10;;;18.10;99.90;;;;;;5012438;28;20220;-72
2023/09/21 01:35:50;;;;;;;2.03;1.77;;;18.00;99.90;;;;;;5008757;28;20831;-72
2023/09/21 01:38:17;;;;;;;2.93;1.73;;;18.00;99.90;;;;;;4989830;28;20503;-72
2023/09/21 01:40:43;;;;;;;2.00;1.80;;;18.00;99.90;;;;;;5007897;28;20320;-72
2023/09/21 01:43:15;;;;;;;1.73;1.63;;;18.00;99.90;;;;;;5012060;28;20467;-71
2023/09/21 01:45:42;;;;;;;4.57;2.17;;;17.80;99.90;;;;;;5009754;28;20466;-72
2023/09/21 01:48:14;;;;;;;3.27;1.83;;;17.80;99.90;;;;;;5011046;28;20501;-72
2023/09/21 01:50:43;;;;;;;2.50;2.20;;;17.80;99.90;;;;;;5010873;28;20466;-72
2023/09/21 01:53:09;;;;;;;1.77;1.67;;;17.90;99.90;;;;;;4991436;28;20475;-71
2023/09/21 01:55:36;;;;;;;2.93;2.03;;;17.90;99.90;;;;;;5009068;28;20487;-72
2023/09/21 01:58:04;;;;;;;1.83;1.73;;;17.90;99.90;;;;;;4984692;28;20475;-71
2023/09/21 02:00:35;;;;;;;2.90;2.60;;;17.80;99.90;;;;;;5000062;28;20478;-71
2023/09/21 02:03:06;;;;;;;2.00;1.70;;;17.80;99.90;;;;;;5014573;28;20463;-72
2023/09/21 02:05:32;;;;;;;2.20;2.00;;;17.80;99.90;;;;;;5016361;28;20558;-72
2023/09/21 02:07:59;;;;;;;3.30;2.17;;;17.80;99.90;;;;;;5015401;28;20467;-71
2023/09/21 02:10:24;;;;;;;3.47;2.60;;;17.80;99.90;;;;;;4990571;28;20537;-72
2023/09/21 02:12:55;;;;;;;1.70;1.60;;;17.80;99.90;;;;;;5022414;28;20653;-72
2023/09/21 02:15:26;;;;;;;2.77;2.13;;;17.70;99.90;;;;;;5013849;28;20724;-72
2023/09/21 02:17:54;;;;;;;2.10;2.00;;;17.70;99.90;;;;;;5006870;28;20491;-71
2023/09/21 02:20:20;;;;;;;3.70;2.30;;;17.70;99.90;;;;;;5008784;28;20463;-71
2023/09/21 02:22:50;;;;;;;4.83;2.10;;;17.70;99.90;;;;;;5026463;28;22803;-72
2023/09/21 02:25:17;;;;;;;4.27;3.83;;;17.50;99.90;;;;;;5026854;28;20558;-72
2023/09/21 02:27:47;;;;;;;2.77;2.33;;;17.50;99.90;;;;;;5006391;28;20472;-71
2023/09/21 02:30:21;;;;;;;2.93;2.10;;;17.40;99.90;;;;;;4992617;28;20568;-71
2023/09/21 02:32:51;;;;;;;2.60;2.40;;;17.40;99.90;;;;;;5010721;28;20462;-72
2023/09/21 02:35:30;;;;;;;2.83;1.80;;;17.20;99.90;;;;;;5009013;28;21216;-72
2023/09/21 02:37:56;;;;;;;2.13;1.90;;;17.20;99.90;;;;;;4992052;28;20466;-71
2023/09/21 02:40:24;;;;;;;2.03;1.83;;;17.10;99.90;;;;;;5005769;28;20463;-71
2023/09/21 02:42:52;;;;;;;1.80;1.70;;;17.10;99.90;;;;;;5007045;28;20458;-72
2023/09/21 02:45:25;;;;;;;2.53;1.80;;;17.20;99.90;;;;;;5010298;28;20546;-72
2023/09/21 02:47:54;;;;;;;3.20;2.30;;;17.20;99.90;;;;;;5025859;28;21111;-71
2023/09/21 02:50:25;;;;;;;3.43;2.13;;;17.30;99.90;;;;;;5009051;28;20471;-71
2023/09/21 02:52:51;;;;;;;4.10;2.40;;;17.40;99.90;;;;;;4999340;28;20459;-71
2023/09/21 02:55:18;;;;;;;3.20;2.20;;;17.40;99.90;;;;;;4999666;28;20555;-71
2023/09/21 02:57:47;;;;;;;2.47;2.10;;;17.40;99.90;;;;;;5027459;28;20232;-71
2023/09/21 03:00:20;;;;;;;2.50;2.17;;;17.40;99.90;;;;;;5024723;28;20506;-72
2023/09/21 03:02:46;;;;;;;2.90;2.10;;;17.30;99.90;;;;;;5009447;28;20513;-71
2023/09/21 03:05:13;;;;;;;2.17;1.97;;;17.30;99.90;;;;;;5023174;28;20471;-71
2023/09/21 03:07:43;;;;;;;2.63;2.43;;;17.30;99.90;;;;;;5011409;28;20907;-72
2023/09/21 03:10:10;;;;;;;2.00;1.90;;;17.30;99.90;;;;;;5012878;28;20621;-71
2023/09/21 03:12:37;;;;;;;3.20;2.33;;;17.30;99.90;;;;;;5012780;28;21090;-72
2023/09/21 03:15:07;;;;;;;2.20;1.97;;;17.30;99.90;;;;;;5012755;28;20510;-71
2023/09/21 03:17:34;;;;;;;2.13;1.77;;;17.30;99.90;;;;;;5012466;28;20482;-72
2023/09/21 03:20:18;;;;;;;2.17;1.97;;;17.30;99.90;;;;;;5013439;28;20513;-72
2023/09/21 03:22:44;;;;;;;2.20;2.00;;;17.30;99.90;;;;;;5029433;28;21247;-71
2023/09/21 03:25:16;;;;;;;2.03;1.87;;;17.30;99.90;;;;;;5030081;28;20473;-71
2023/09/21 03:27:42;;;;;;;2.53;1.93;;;17.30;99.90;;;;;;5013161;28;20248;-71
2023/09/21 03:30:11;;;;;;;3.37;2.23;;;17.30;99.90;;;;;;5014985;28;20454;-72
2023/09/21 03:32:40;;;;;;;2.10;1.90;;;17.30;99.90;;;;;;4995797;28;20486;-71
2023/09/21 03:35:06;;;;;;;3.23;1.53;;;17.30;99.90;;;;;;5013381;28;20494;-72
2023/09/21 03:37:32;;;;;;;2.10;1.90;;;17.20;99.90;;;;;;5011974;28;20570;-73
2023/09/21 03:39:58;;;;;;;2.97;2.00;;;17.20;99.90;;;;;;5008378;28;20482;-71
2023/09/21 03:42:24;;;;;;;3.20;1.70;;;17.20;99.90;;;;;;5007556;28;20220;-71
2023/09/21 03:44:50;;;;;;;3.43;1.93;;;17.20;99.90;;;;;;5008233;28;20594;-71
2023/09/21 03:47:19;;;;;;;4.80;2.33;;;17.10;99.90;;;;;;5027815;28;20466;-72
2023/09/21 03:49:45;;;;;;;2.67;2.47;;;17.10;99.90;;;;;;5010850;28;21052;-71
2023/09/21 03:52:15;;;;;;;3.33;2.50;;;17.20;99.90;;;;;;5013420;28;20462;-72
2023/09/21 03:54:42;;;;;;;2.80;2.20;;;17.10;99.90;;;;;;5008049;28;20373;-72
2023/09/21 03:57:11;;;;;;;3.03;1.73;;;17.10;99.90;;;;;;5013918;28;20466;-72
2023/09/21 03:59:37;;;;;;;2.13;1.87;;;17.10;99.90;;;;;;5012062;28;20459;-72
2023/09/21 04:02:03;;;;;;;3.27;2.57;;;17.10;99.90;;;;;;5024991;28;20467;-73
2023/09/21 04:04:30;;;;;;;2.83;2.27;;;17.10;99.90;;;;;;5028883;28;20477;-72
2023/09/21 04:06:56;;;;;;;2.87;2.03;;;17.20;99.90;;;;;;5011371;28;20254;-72
2023/09/21 04:09:22;;;;;;;1.80;1.70;;;17.10;99.90;;;;;;5028814;28;20486;-72
2023/09/21 04:11:48;;;;;;;3.20;2.30;;;17.10;99.90;;;;;;5010760;28;20220;-72
2023/09/21 04:14:13;;;;;;;4.30;2.13;;;17.10;99.90;;;;;;5012740;28;20310;-72
2023/09/21 04:16:39;;;;;;;2.40;2.20;;;17.10;99.90;;;;;;5010578;28;20840;-72
2023/09/21 04:19:10;;;;;;;6.83;3.10;;;17.00;99.90;;;;;;5011201;28;20279;-71
2023/09/21 04:21:38;;;;;;;2.37;2.17;;;17.00;99.90;;;;;;5012738;28;20220;-72
2023/09/21 04:24:05;;;;;;;2.33;2.13;;;17.00;99.90;;;;;;5012524;28;21052;-72
2023/09/21 04:26:31;;;;;;;4.03;2.60;;;17.00;99.90;;;;;;5012973;28;20541;-72
2023/09/21 04:28:56;;;;;;;2.20;1.93;;;17.00;99.90;;;;;;5027179;28;20471;-71
2023/09/21 04:31:22;;;;;;;2.07;1.70;;;17.00;99.90;;;;;;5013027;28;20717;-71
2023/09/21 04:33:48;;;;;;;4.87;1.90;;;17.00;99.90;;;;;;5011874;28;20637;-72
2023/09/21 04:36:14;;;;;;;2.40;2.17;;;17.00;99.90;;;;;;5012782;28;20416;-72
2023/09/21 04:38:39;;;;;;;2.80;2.00;;;17.00;99.90;;;;;;5012153;28;20297;-71
2023/09/21 04:41:06;;;;;;;3.47;2.10;;;17.10;99.90;;;;;;5012480;28;20224;-71
2023/09/21 04:43:32;;;;;;;3.07;2.00;;;17.00;99.90;;;;;;5009731;28;20590;-71
2023/09/21 04:46:02;;;;;;;2.47;2.13;;;17.00;99.90;;;;;;4992940;28;20472;-71
2023/09/21 04:48:30;;;;;;;2.60;2.10;;;17.00;99.90;;;;;;5007215;28;20970;-71
2023/09/21 04:50:56;;;;;;;4.23;2.70;;;17.10;99.90;;;;;;5025093;28;20474;-72
2023/09/21 04:53:22;;;;;;;3.00;2.30;;;17.00;99.90;;;;;;5007710;28;21083;-71
2023/09/21 04:55:49;;;;;;;3.53;2.17;;;17.10;99.90;;;;;;4988426;28;21285;-71
2023/09/21 04:58:16;;;;;;;3.33;2.60;;;17.10;99.90;;;;;;5009639;28;20483;-71
2023/09/21 05:00:42;;;;;;;2.47;1.97;;;17.10;99.90;;;;;;5023163;28;20236;-71
2023/09/21 05:03:09;;;;;;;3.13;2.60;;;17.10;99.90;;;;;;5005380;28;20470;-71
2023/09/21 05:05:35;;;;;;;3.03;2.30;;;17.10;99.90;;;;;;5014021;28;20479;-71
2023/09/21 05:08:04;;;;;;;2.43;1.83;;;17.10;99.90;;;;;;5006001;28;20479;-71
2023/09/21 05:10:32;;;;;;;3.50;2.03;;;17.10;99.90;;;;;;5005844;28;20565;-71
2023/09/21 05:12:58;;;;;;;2.90;2.60;;;17.10;99.90;;;;;;5007017;28;20487;-71
2023/09/21 05:15:24;;;;;;;3.47;2.30;;;17.00;99.90;;;;;;5009537;28;20607;-71
2023/09/21 05:17:49;;;;;;;5.93;2.23;;;17.00;99.90;;;;;;5004545;28;20237;-71
2023/09/21 05:20:15;;;;;;;2.40;2.20;;;17.00;99.90;;;;;;5009551;28;20579;-73
2023/09/21 05:22:42;;;;;;;3.17;2.17;;;17.00;99.90;;;;;;5007361;28;20279;-72
2023/09/21 05:25:09;;;;;;;2.57;2.10;;;17.00;99.90;;;;;;5007947;28;20224;-72
2023/09/21 05:27:36;;;;;;;2.53;2.33;;;17.00;99.90;;;;;;5024997;28;20515;-71
2023/09/21 05:30:09;;;;;;;2.20;2.00;;;17.00;99.90;;;;;;5014185;28;20525;-71
2023/09/21 05:32:35;;;;;;;2.97;2.63;;;17.00;99.90;;;;;;5008105;28;20566;-71
2023/09/21 05:35:02;;;;;;;3.27;2.43;;;17.00;99.90;;;;;;5006764;28;21121;-72
2023/09/21 05:37:29;;;;;;;2.83;2.50;;;17.00;99.90;;;;;;4991754;28;20533;-72
2023/09/21 05:39:55;;;;;;;3.17;2.37;;;16.90;99.90;;;;;;4997229;28;20490;-71
2023/09/21 05:42:23;;;;;;;2.73;2.53;;;16.80;99.90;;;;;;4979359;28;20522;-71
2023/09/21 05:44:52;;;;;;;7.53;2.80;;;16.90;99.90;;;;;;4992175;28;20478;-71
2023/09/21 05:47:17;;;;;;;4.10;2.60;;;16.90;99.90;;;;;;4982124;28;20982;-71
2023/09/21 05:49:43;;;;;;;4.20;2.77;;;16.90;99.90;;;;;;4981562;28;20495;-72
2023/09/21 05:52:12;;;;;;;3.50;2.43;;;16.90;99.90;;;;;;4978060;28;20352;-71
2023/09/21 05:54:42;;;;;;;2.77;2.57;;;16.80;99.90;;;;;;4996122;28;20762;-72
2023/09/21 05:57:08;;;;;;;3.13;2.50;;;16.80;99.90;;;;;;4981232;28;20462;-71
2023/09/21 05:59:34;;;;;;;3.80;2.93;;;16.80;99.90;;;;;;4977530;28;21237;-73
2023/09/21 06:02:04;;;;;;;2.93;2.60;;;16.80;99.90;;;;;;4978138;28;21120;-72
2023/09/21 06:04:30;;;;;;;3.60;2.67;;;16.80;99.90;;;;;;4995165;28;20474;-72
2023/09/21 06:06:58;;;;;;;5.03;2.90;;;16.80;99.90;;;;;;4963537;28;20463;-72
2023/09/21 06:09:24;;;;;;;3.93;2.50;;;16.80;99.90;;;;;;4956588;28;20225;-72
2023/09/21 06:11:50;;;;;;;2.93;2.63;;;16.80;99.90;;;;;;4979976;28;20466;-72
2023/09/21 06:14:17;;;;;;;3.80;2.77;;;16.80;99.90;;;;;;4978830;28;20601;-72
2023/09/21 06:16:44;;;;;;;3.67;3.20;;;16.80;99.90;;;;;;4973343;28;21109;-73
2023/09/21 06:19:11;;;;;;;2.70;2.47;;;16.80;99.90;;;;;;4994715;28;21004;-72
2023/09/21 06:21:38;;;;;;;5.10;2.60;;;16.80;99.90;;;;;;4980122;28;21123;-72
2023/09/21 06:24:04;;;;;;;3.80;2.60;;;16.80;99.90;;;;;;4978874;28;21575;-72
2023/09/21 06:26:30;;;;;;;3.53;2.60;;;16.90;99.90;;;;;;4977516;28;20463;-71
2023/09/21 06:28:56;;;;;;;3.03;2.73;;;16.80;99.90;;;;;;4978457;28;20372;-71
2023/09/21 06:31:22;;;;;;;4.90;2.37;;;16.70;99.90;;;;;;4979555;28;20363;-71
2023/09/21 06:33:48;;;;;;;2.63;2.33;;;16.70;99.90;;;;;;4977120;28;20485;-71
2023/09/21 06:36:20;;;;;;;4.77;3.10;;;16.80;99.90;;;;;;4977987;28;21055;-72
2023/09/21 06:38:52;;;;;;;3.03;2.73;;;16.80;99.90;;;;;;4981885;28;20225;-71
2023/09/21 06:41:18;;;;;;;3.87;2.70;;;16.70;99.90;;;;;;4979172;28;20474;-71
2023/09/21 06:43:44;;;;;;;3.77;2.90;;;16.80;99.90;;;;;;4980894;28;20486;-71
2023/09/21 06:46:11;;;;;;;5.10;3.10;;;16.70;99.90;;;;;;4983072;28;20474;-71
2023/09/21 06:48:37;;;;;;;4.23;2.67;;;16.70;99.90;;;;;;4981388;28;20235;-71
2023/09/21 06:51:10;;;;;;;3.87;2.37;;;16.80;99.90;;;;;;4961240;28;20529;-72
2023/09/21 06:53:36;;;;;;;5.20;3.10;;;16.80;99.90;;;;;;4978268;28;20497;-72
2023/09/21 06:56:03;;;;;;;4.47;2.83;;;16.90;99.90;;;;;;4986203;28;20550;-71
2023/09/21 06:58:30;;;;;;;8.90;3.70;;;16.90;99.90;;;;;;4982949;28;20490;-71
2023/09/21 07:00:58;;;;;;;4.60;3.00;;;16.90;99.90;;;;;;4981330;28;20543;-71
2023/09/21 07:03:24;;;;;;;5.30;4.43;;;16.90;99.90;;;;;;4962084;28;20609;-71
2023/09/21 07:05:50;;;;;;;3.00;2.60;;;16.90;99.90;;;;;;4977810;28;20568;-71
2023/09/21 07:08:17;;;;;;;3.83;3.30;;;17.00;99.90;;;;;;4981106;28;20532;-71
2023/09/21 07:10:43;;;;;;;4.60;3.20;;;17.00;99.90;;;;;;4982779;28;20244;-71
2023/09/21 07:13:13;;;;;;;3.57;3.27;;;17.00;99.90;;;;;;4965757;28;20489;-71
2023/09/21 07:15:39;;;;;;;3.60;3.00;;;17.00;99.90;;;;;;4980772;28;20486;-71
2023/09/21 07:18:09;;;;;;;3.80;2.97;;;17.00;99.90;;;;;;4991212;28;20490;-71
2023/09/21 07:20:36;;;;;;;3.20;2.90;;;17.10;99.90;;;;;;4997425;28;20918;-72
2023/09/21 07:23:02;;;;;;;3.53;3.03;;;17.00;99.90;;;;;;4982219;28;21210;-72
2023/09/21 07:25:28;;;;;;;3.77;3.10;;;17.00;99.90;;;;;;4980132;28;20467;-71
2023/09/21 07:27:54;;;;;;;10.03;3.53;;;17.00;99.90;;;;;;4981690;28;20224;-72
2023/09/21 07:30:32;;;;;;;6.73;3.87;;;17.10;99.90;;;;;;4983944;28;20493;-71
2023/09/21 07:32:59;;;;;;;6.37;3.27;;;17.10;99.90;;;;;;4996374;28;20478;-71
2023/09/21 07:35:24;;;;;;;4.83;2.60;;;17.10;99.90;;;;;;4991968;28;20471;-71
2023/09/21 07:37:51;;;;;;;5.90;3.20;;;17.10;99.90;;;;;;4981965;28;20474;-72
2023/09/21 07:40:17;;;;;;;4.07;3.33;;;17.10;99.90;;;;;;4996835;28;20939;-71
2023/09/21 07:42:44;;;;;;;4.50;2.80;;;17.10;99.90;;;;;;4991908;28;20503;-71
2023/09/21 07:45:10;;;;;;;4.43;2.93;;;17.10;99.90;;;;;;4982470;28;20467;-71
2023/09/21 07:47:37;;;;;;;3.47;3.17;;;17.10;99.90;;;;;;4983354;28;20471;-71
2023/09/21 07:50:04;;;;;;;4.20;3.30;;;17.20;99.90;;;;;;4973145;28;20251;-71
2023/09/21 07:52:30;;;;;;;3.50;3.20;;;17.20;99.90;;;;;;4979398;28;20517;-71
2023/09/21 07:54:56;;;;;;;3.57;2.83;;;17.10;99.90;;;;;;4992631;28;21237;-71
2023/09/21 07:57:22;;;;;;;4.60;3.27;;;17.20;99.90;;;;;;4963362;28;21241;-72
2023/09/21 07:59:48;;;;;;;4.03;3.17;;;17.10;99.90;;;;;;4980851;28;20493;-72
2023/09/21 08:02:14;;;;;;;3.27;2.97;;;17.20;99.90;;;;;;4981396;28;20351;-71
2023/09/21 08:04:39;;;;;;;3.20;2.70;;;17.20;99.90;;;;;;4978874;28;20209;-71
2023/09/21 08:07:05;;;;;;;5.13;2.80;;;17.30;99.90;;;;;;4978295;28;20232;-72
2023/09/21 08:09:32;;;;;;;4.27;2.87;;;17.30;99.90;;;;;;4971518;28;20345;-71
2023/09/21 08:11:58;;;;;;;7.23;3.37;;;17.30;99.90;;;;;;4981531;28;20224;-71
2023/09/21 08:14:25;;;;;;;5.40;2.80;;;17.30;99.90;;;;;;4980124;28;21359;-72
2023/09/21 08:16:54;;;;;;;3.37;2.77;;;17.30;99.90;;;;;;4979029;28;20970;-72
2023/09/21 08:19:20;;;;;;;5.27;3.60;;;17.40;99.90;;;;;;4959259;28;20623;-71
2023/09/21 08:21:45;;;;;;;3.90;2.93;;;17.40;99.90;;;;;;4980326;28;21198;-71
2023/09/21 08:24:12;;;;;;;3.77;2.97;;;17.40;99.90;;;;;;4980093;28;20351;-71
2023/09/21 08:26:40;;;;;;;3.17;2.87;;;17.40;99.90;;;;;;4989144;28;20221;-71
2023/09/21 08:29:06;;;;;;;3.10;2.80;;;17.40;99.90;;;;;;4982509;28;20578;-71
2023/09/21 08:31:32;;;;;;;3.40;3.00;;;17.40;99.90;;;;;;4993476;28;20472;-71
2023/09/21 08:33:59;;;;;;;3.57;3.03;;;17.40;99.90;;;;;;4980003;28;21134;-71
2023/09/21 08:36:25;;;;;;;2.60;2.40;;;17.40;99.90;;;;;;4979452;28;20232;-72
2023/09/21 08:38:53;;;;;;;8.23;3.10;;;17.50;99.90;;;;;;4981757;28;20544;-71
2023/09/21 08:41:18;;;;;;;3.53;2.90;;;17.50;99.90;;;;;;4978829;28;20537;-73
2023/09/21 08:43:45;;;;;;;3.73;3.00;;;17.60;99.90;;;;;;4975795;28;20475;-71
2023/09/21 08:46:12;;;;;;;3.63;2.77;;;17.60;99.90;;;;;;4979822;28;20936;-71
2023/09/21 08:48:39;;;;;;;3.93;3.43;;;17.70;99.90;;;;;;4979571;28;20487;-71
2023/09/21 08:51:11;;;;;;;8.37;4.40;;;17.70;99.90;;;;;;4959265;28;20579;-72
2023/09/21 08:53:39;;;;;;;5.30;3.77;;;17.80;99.90;;;;;;4982190;28;20599;-71
2023/09/21 08:56:05;;;;;;;3.87;3.57;;;17.80;99.90;;;;;;4972240;28;20479;-71
2023/09/21 08:58:37;;;;;;;4.40;3.97;;;17.90;99.90;;;;;;4993468;28;21232;-71
2023/09/21 09:01:03;;;;;;;3.57;3.27;;;17.90;99.90;;;;;;4980729;28;21870;-72
2023/09/21 09:03:30;;;;;;;6.10;3.43;;;18.00;99.90;;;;;;4979311;28;20508;-72
2023/09/21 09:05:58;;;;;;;4.50;3.70;;;18.10;99.90;;;;;;4977138;28;20265;-72
2023/09/21 09:08:25;;;;;;;3.63;3.33;;;18.20;99.90;;;;;;4991293;28;20478;-72
2023/09/21 09:10:53;;;;;;;5.13;4.67;;;18.30;99.90;;;;;;4993193;28;20474;-71
2023/09/21 09:13:19;;;;;;;3.50;3.20;;;18.40;99.90;;;;;;4993939;28;20482;-72
2023/09/21 09:15:45;;;;;;;3.10;2.70;;;18.50;99.90;;;;;;4977674;28;20523;-72
2023/09/21 09:18:15;;;;;;;3.37;3.07;;;18.50;99.90;;;;;;4979344;28;20466;-72
2023/09/21 09:20:44;;;;;;;3.73;3.40;;;18.60;99.90;;;;;;4980411;28;20515;-71
2023/09/21 09:23:12;;;;;;;3.47;3.17;;;18.70;99.90;;;;;;4976784;28;20470;-71
2023/09/21 09:25:39;;;;;;;2.73;2.43;;;18.80;99.90;;;;;;4990540;28;20471;-72
2023/09/21 09:28:07;;;;;;;3.40;2.80;;;18.90;99.90;;;;;;4980654;28;20521;-72
2023/09/21 09:30:35;;;;;;;4.57;2.97;;;19.00;99.90;;;;;;4972499;28;21397;-72
2023/09/21 09:33:02;;;;;;;6.33;3.23;;;19.10;99.90;;;;;;4976025;28;21193;-71
2023/09/21 09:35:30;;;;;;;4.83;3.20;;;19.20;99.90;;;;;;4980277;28;20485;-71
2023/09/21 09:37:57;;;;;;;3.67;2.70;;;19.30;99.90;;;;;;4979444;28;20479;-71
2023/09/21 09:40:24;;;;;;;3.13;2.83;;;19.40;99.90;;;;;;4975617;28;20474;-72
2023/09/21 09:42:51;;;;;;;3.20;2.90;;;19.50;99.90;;;;;;4978489;28;20471;-72
2023/09/21 09:45:38;;;;;;;3.27;2.97;;;19.50;99.90;;;;;;4992927;28;20475;-72
2023/09/21 09:48:11;;;;;;;3.83;3.30;;;19.60;99.90;;;;;;4978456;28;20471;-71
2023/09/21 09:50:41;;;;;;;3.97;2.70;;;19.70;99.90;;;;;;4977351;28;20479;-72
2023/09/21 09:53:11;;;;;;;6.27;2.93;;;19.70;99.90;;;;;;4981271;28;20478;-72
2023/09/21 09:55:42;;;;;;;4.07;3.33;;;19.80;99.90;;;;;;4980301;28;20487;-72
2023/09/21 09:58:08;;;;;;;3.53;2.40;;;19.90;99.90;;;;;;4961206;28;20474;-72
2023/09/21 10:00:35;;;;;;;8.03;2.37;;;20.00;99.90;;;;;;4992736;28;20478;-72
2023/09/21 10:03:03;;;;;;;3.00;2.47;;;20.10;99.90;;;;;;4978106;28;20536;-72
2023/09/21 10:05:30;;;;;;;6.30;2.50;;;20.20;99.90;;;;;;4976807;28;20471;-74
2023/09/21 10:08:00;;;;;;;4.77;2.80;;;20.30;99.90;;;;;;4977556;28;21314;-72
2023/09/21 10:10:32;;;;;;;2.80;2.40;;;20.30;99.90;;;;;;4962608;28;21004;-72
2023/09/21 10:12:58;;;;;;;2.10;2.00;;;20.40;99.90;;;;;;4977762;28;21110;-72
2023/09/21 10:15:25;;;;;;;5.30;3.13;;;20.40;99.90;;;;;;4991812;28;20475;-72
2023/09/21 10:17:54;;;;;;;4.40;2.57;;;20.50;99.90;;;;;;4978480;28;20770;-72
2023/09/21 10:20:32;;;;;;;4.77;2.60;;;20.70;99.90;;;;;;4977662;28;20475;-72
2023/09/21 10:23:07;;;;;;;2.80;2.40;;;20.80;99.90;;;;;;4976904;28;21117;-72
2023/09/21 10:25:45;;;;;;;2.27;2.10;;;20.90;99.90;;;;;;4973371;28;20564;-72
2023/09/21 10:28:29;;;;;;;5.30;2.17;;;21.10;99.90;;;;;;4978683;28;21348;-72
2023/09/21 10:31:09;;;;;;;2.70;2.37;;;21.50;99.90;;;;;;4978037;28;20516;-73
2023/09/21 10:33:51;;;;;;;2.50;2.13;;;21.90;99.90;;;;;;4971710;28;20873;-72
2023/09/21 10:36:26;;;;;;;2.73;2.47;;;22.10;99.90;;;;;;4994594;28;20495;-73
2023/09/21 10:39:10;;;;;;;2.20;1.83;;;22.10;99.90;;;;;;4978593;28;21592;-72
2023/09/21 10:41:42;;;;;;;2.37;2.17;;;22.20;99.90;;;;;;4979113;28;20491;-72
2023/09/21 10:44:09;;;;;;;5.40;2.90;;;22.20;99.90;;;;;;4993164;28;21946;-72
2023/09/21 10:46:35;;;;;;;4.80;2.63;;;22.20;99.90;;;;;;4971038;28;21306;-73
2023/09/21 10:49:03;;;;;;;2.33;2.13;;;22.20;99.90;;;;;;4979246;28;20486;-72
2023/09/21 10:51:31;;;;;;;2.43;2.23;;;22.20;99.90;;;;;;4994117;28;20575;-73
2023/09/21 10:53:59;;;;;;;3.37;2.20;;;22.20;99.90;;;;;;4972503;28;21248;-72
2023/09/21 10:56:28;;;;;;;2.67;2.47;;;22.20;99.90;;;;;;4978569;28;20479;-73
2023/09/21 10:58:54;;;;;;;2.53;1.97;;;22.30;99.90;;;;;;4987183;28;20474;-71
2023/09/21 11:01:21;;;;;;;2.57;2.37;;;22.40;99.90;;;;;;4978732;28;21075;-72
2023/09/21 11:03:49;;;;;;;2.60;2.40;;;22.50;99.90;;;;;;4976597;28;20482;-72
2023/09/21 11:06:17;;;;;;;3.40;2.20;;;22.50;99.90;;;;;;4977693;28;20479;-72
2023/09/21 11:08:49;;;;;;;2.07;1.97;;;22.40;99.90;;;;;;4961753;28;20489;-72
2023/09/21 11:11:21;;;;;;;2.50;2.30;;;22.50;99.90;;;;;;4983022;28;20500;-71
2023/09/21 11:13:51;;;;;;;3.23;2.50;;;22.40;99.90;;;;;;4975841;28;20484;-72
2023/09/21 11:16:17;;;;;;;4.10;2.80;;;22.30;99.90;;;;;;4974579;28;20620;-71
2023/09/21 11:18:44;;;;;;;2.60;2.40;;;22.40;99.90;;;;;;4978585;28;20544;-72
2023/09/21 11:21:11;;;;;;;9.10;2.70;;;22.40;99.90;;;;;;4990719;28;20466;-72
2023/09/21 11:23:42;;;;;;;2.97;2.10;;;22.50;99.90;;;;;;4954464;28;20474;-73
2023/09/21 11:26:11;;;;;;;6.43;2.40;;;22.50;99.90;;;;;;4977367;28;20841;-72
2023/09/21 11:28:40;;;;;;;2.60;2.40;;;22.60;99.90;;;;;;4991366;28;20474;-72
2023/09/21 11:31:05;;;;;;;2.10;1.90;;;22.60;99.90;;;;;;4974952;28;20482;-72
2023/09/21 11:33:37;;;;;;;3.40;2.60;;;22.60;99.90;;;;;;4978491;28;20474;-72
2023/09/21 11:36:04;;;;;;;3.53;2.67;;;22.70;99.90;;;;;;4982504;28;20813;-72
2023/09/21 11:38:33;;;;;;;3.10;2.30;;;22.80;99.90;;;;;;4981010;28;20506;-73
2023/09/21 11:40:59;;;;;;;3.90;2.70;;;23.00;99.90;;;;;;4979229;28;20472;-72
2023/09/21 11:43:25;;;;;;;3.20;2.27;;;23.10;99.90;;;;;;4963922;28;20605;-73
2023/09/21 11:45:52;;;;;;;2.73;2.40;;;23.20;99.90;;;;;;4994887;28;21055;-72
2023/09/21 11:48:20;;;;;;;2.40;2.20;;;23.20;99.90;;;;;;4980982;28;20609;-72
2023/09/21 11:50:46;;;;;;;2.13;1.90;;;23.20;99.90;;;;;;4979718;28;21232;-72
2023/09/21 11:53:12;;;;;;;2.70;2.40;;;23.30;99.90;;;;;;4981351;28;21011;-72
2023/09/21 11:55:38;;;;;;;2.33;2.17;;;23.20;99.90;;;;;;4979177;28;20512;-72
2023/09/21 11:58:14;;;;;;;2.60;2.20;;;23.20;99.90;;;;;;4973656;28;20448;-72
2023/09/21 12:00:45;;;;;;;2.77;2.27;;;23.30;99.90;;;;;;4996274;28;21461;-72
2023/09/21 12:03:16;;;;;;;3.83;2.57;;;23.40;99.90;;;;;;4964004;28;21591;-72
2023/09/21 12:05:44;;;;;;;1.90;1.80;;;23.30;99.90;;;;;;4979319;28;20466;-72
2023/09/21 12:08:14;;;;;;;2.00;1.90;;;23.30;99.90;;;;;;4978598;28;20634;-72
2023/09/21 12:10:47;;;;;;;2.67;2.47;;;23.30;99.90;;;;;;4983254;28;21267;-72
2023/09/21 12:13:16;;;;;;;3.13;2.40;;;23.40;99.90;;;;;;4994491;28;20591;-72
2023/09/21 12:15:42;;;;;;;2.73;2.53;;;23.40;99.90;;;;;;4979072;28;20557;-72
2023/09/21 12:18:10;;;;;;;2.77;2.27;;;23.40;99.90;;;;;;4980447;28;20594;-72
2023/09/21 12:20:37;;;;;;;4.03;2.00;;;23.30;99.90;;;;;;4981138;28;20216;-72
2023/09/21 12:23:05;;;;;;;3.10;2.50;;;23.30;99.90;;;;;;4974926;28;20825;-72
2023/09/21 12:25:32;;;;;;;2.47;2.20;;;23.30;99.90;;;;;;4979009;28;21111;-72
2023/09/21 12:27:57;;;;;;;2.80;2.40;;;23.30;99.90;;;;;;4980183;28;20540;-72
2023/09/21 12:30:23;;;;;;;3.33;3.03;;;23.30;99.90;;;;;;4979803;28;20471;-72
2023/09/21 12:32:49;;;;;;;2.50;2.40;;;23.30;99.90;;;;;;4972543;28;20361;-72
2023/09/21 12:35:17;;;;;;;2.93;2.73;;;23.30;99.90;;;;;;4978899;28;20790;-73
2023/09/21 12:37:44;;;;;;;6.10;2.57;;;23.30;99.90;;;;;;4979568;28;21372;-72
2023/09/21 12:40:16;;;;;;;3.07;2.77;;;23.40;99.90;;;;;;4974923;28;20894;-72
2023/09/21 12:42:42;;;;;;;2.97;2.67;;;23.40;99.90;;;;;;4992607;28;20483;-72
2023/09/21 12:45:12;;;;;;;3.20;2.90;;;23.50;99.90;;;;;;4992928;28;20469;-72
2023/09/21 12:47:39;;;;;;;3.20;2.90;;;23.60;99.90;;;;;;5007074;28;20470;-73
2023/09/21 12:50:06;;;;;;;3.57;2.60;;;23.60;99.90;;;;;;4998305;28;21228;-73